createdAt,value
2018-09-14T00:01:33.609Z,99.90
2018-09-14T00:04:02.238Z,99.90
2018-09-14T00:06:31.140Z,99.90
2018-09-14T00:08:59.921Z,99.90
2018-09-14T00:11:28.583Z,99.90
2018-09-14T00:13:57.225Z,99.90
2018-09-14T00:16:26.092Z,99.90
2018-09-14T00:18:54.881Z,99.90
2018-09-14T00:21:23.627Z,99.90
2018-09-14T00:23:52.368Z,99.90
2018-09-14T00:26:20.993Z,99.90
2018-09-14T00:28:49.837Z,99.90
2018-09-14T00:31:18.526Z,99.90
2018-09-14T00:33:47.549Z,99.90
2018-09-14T00:36:16.357Z,99.90
2018-09-14T00:38:45.032Z,99.90
2018-09-14T00:41:13.715Z,99.90
2018-09-14T00:43:48.946Z,99.90
2018-09-14T00:46:17.630Z,99.90
2018-09-14T00:48:46.241Z,99.90
2018-09-14T00:51:14.895Z,99.90
2018-09-14T00:53:43.639Z,99.90
2018-09-14T00:56:12.253Z,99.90
2018-09-14T00:58:40.906Z,99.90
2018-09-14T01:01:09.559Z,99.90
2018-09-14T01:03:38.173Z,99.90
2018-09-14T01:06:07.089Z,99.90
2018-09-14T01:08:35.712Z,99.90
2018-09-14T01:11:04.881Z,99.90
2018-09-14T01:13:33.565Z,99.90
2018-09-14T01:16:02.186Z,99.90
2018-09-14T01:18:30.900Z,99.90
2018-09-14T01:20:59.552Z,99.90
2018-09-14T01:23:28.155Z,99.90
2018-09-14T01:25:56.798Z,99.90
2018-09-14T01:28:25.421Z,99.90
2018-09-14T01:30:54.097Z,99.90
2018-09-14T01:33:22.717Z,99.90
2018-09-14T01:35:56.719Z,99.90
2018-09-14T01:38:25.360Z,99.90
2018-09-14T01:40:53.992Z,99.90
2018-09-14T01:43:22.632Z,99.90
2018-09-14T01:45:51.237Z,99.90
2018-09-14T01:48:20.058Z,99.90
2018-09-14T01:50:48.677Z,99.90
2018-09-14T01:53:17.326Z,99.90
2018-09-14T01:55:45.960Z,99.90
2018-09-14T01:58:14.587Z,99.90
2018-09-14T02:00:43.362Z,99.90
2018-09-14T02:03:11.969Z,99.90
2018-09-14T02:05:40.730Z,99.90
2018-09-14T02:08:09.406Z,99.90
2018-09-14T02:10:38.030Z,99.90
2018-09-14T02:13:06.746Z,99.90
2018-09-14T02:15:35.378Z,99.90
2018-09-14T02:18:04.013Z,99.90
2018-09-14T02:20:32.649Z,99.90
2018-09-14T02:23:01.269Z,99.90
2018-09-14T02:25:30.865Z,99.90
2018-09-14T02:27:59.549Z,99.90
2018-09-14T02:30:28.173Z,99.90
2018-09-14T02:32:56.822Z,99.90
2018-09-14T02:35:25.441Z,99.90
2018-09-14T02:37:54.101Z,99.90
2018-09-14T02:40:22.717Z,99.90
2018-09-14T02:42:51.325Z,99.90
2018-09-14T02:45:19.987Z,99.90
2018-09-14T02:47:48.607Z,99.90
2018-09-14T02:50:17.350Z,99.90
2018-09-14T02:52:45.957Z,99.90
2018-09-14T02:55:14.645Z,99.90
2018-09-14T02:57:43.276Z,99.90
2018-09-14T03:00:12.174Z,99.90
2018-09-14T03:02:40.944Z,99.90
2018-09-14T03:05:09.740Z,99.90
2018-09-14T03:07:38.358Z,99.90
2018-09-14T03:10:07.226Z,99.90
2018-09-14T03:12:35.856Z,99.90
2018-09-14T03:15:04.630Z,99.90
2018-09-14T03:17:33.263Z,99.90
2018-09-14T03:20:02.294Z,99.90
2018-09-14T03:22:30.949Z,99.90
2018-09-14T03:24:59.554Z,99.90
2018-09-14T03:27:28.318Z,99.90
2018-09-14T03:29:56.943Z,99.90
2018-09-14T03:32:25.607Z,99.90
2018-09-14T03:34:54.243Z,99.90
2018-09-14T03:37:22.866Z,99.90
2018-09-14T03:39:51.589Z,99.90
2018-09-14T03:42:20.338Z,99.90
2018-09-14T03:44:49.019Z,99.90
2018-09-14T03:47:17.677Z,99.90
2018-09-14T03:49:46.297Z,99.90
2018-09-14T03:52:14.985Z,99.90
2018-09-14T03:54:43.598Z,99.90
2018-09-14T03:57:12.228Z,99.90
2018-09-14T03:59:40.905Z,99.90
2018-09-14T04:02:09.522Z,99.90
2018-09-14T04:04:38.174Z,99.90
2018-09-14T04:07:06.878Z,99.90
2018-09-14T04:09:35.493Z,99.90
2018-09-14T04:12:04.236Z,99.90
2018-09-14T04:14:32.850Z,99.90
2018-09-14T04:17:01.537Z,99.90
2018-09-14T04:19:30.155Z,99.90
2018-09-14T04:21:58.786Z,99.90
2018-09-14T04:24:27.423Z,99.90
2018-09-14T04:26:56.053Z,99.90
2018-09-14T04:29:24.709Z,99.90
2018-09-14T04:31:53.336Z,99.90
2018-09-14T04:34:21.965Z,99.90
2018-09-14T04:36:50.601Z,99.90
2018-09-14T04:39:19.232Z,99.90
2018-09-14T04:41:47.919Z,99.90
2018-09-14T04:44:16.538Z,99.90
2018-09-14T04:46:45.162Z,99.90
2018-09-14T04:49:13.811Z,99.90
2018-09-14T04:51:42.441Z,99.90
2018-09-14T04:54:11.173Z,99.90
2018-09-14T04:56:39.846Z,99.90
2018-09-14T04:59:08.699Z,99.90
2018-09-14T05:01:37.367Z,99.90
2018-09-14T05:04:06.044Z,99.90
2018-09-14T05:06:34.699Z,99.90
2018-09-14T05:09:03.517Z,99.90
2018-09-14T05:11:32.218Z,99.90
2018-09-14T05:14:01.402Z,99.90
2018-09-14T05:16:30.036Z,99.90
2018-09-14T05:18:58.769Z,99.90
2018-09-14T05:21:27.479Z,99.90
2018-09-14T05:23:56.151Z,99.90
2018-09-14T05:26:24.919Z,99.90
2018-09-14T05:28:53.508Z,99.90
2018-09-14T05:31:22.157Z,99.90
2018-09-14T05:33:50.782Z,99.90
2018-09-14T05:36:19.449Z,99.90
2018-09-14T05:38:48.075Z,99.90
2018-09-14T05:41:16.753Z,99.90
2018-09-14T05:43:45.410Z,99.90
2018-09-14T05:46:14.089Z,99.90
2018-09-14T05:48:42.703Z,99.90
2018-09-14T05:51:11.361Z,99.90
2018-09-14T05:53:39.990Z,99.90
2018-09-14T05:56:08.630Z,99.90
2018-09-14T05:58:37.289Z,99.90
2018-09-14T06:01:06.002Z,99.90
2018-09-14T06:03:34.678Z,99.90
2018-09-14T06:06:03.353Z,99.90
2018-09-14T06:08:31.987Z,99.90
2018-09-14T06:11:00.633Z,99.90
2018-09-14T06:13:29.253Z,99.90
2018-09-14T06:15:58.002Z,99.90
2018-09-14T06:18:26.649Z,99.90
2018-09-14T06:20:55.485Z,99.90
2018-09-14T06:23:24.168Z,99.90
2018-09-14T06:25:52.817Z,99.90
2018-09-14T06:28:21.469Z,99.90
2018-09-14T06:30:50.133Z,99.90
2018-09-14T06:33:18.804Z,99.90
2018-09-14T06:35:47.918Z,99.90
2018-09-14T06:38:16.614Z,99.90
2018-09-14T06:40:45.250Z,99.90
2018-09-14T06:43:13.933Z,99.90
2018-09-14T06:45:42.564Z,99.90
2018-09-14T06:48:11.488Z,99.90
2018-09-14T06:50:40.165Z,99.90
2018-09-14T06:53:08.844Z,99.90
2018-09-14T06:55:37.516Z,99.90
2018-09-14T06:58:06.174Z,99.90
2018-09-14T07:00:34.875Z,99.90
2018-09-14T07:03:10.222Z,99.90
2018-09-14T07:05:38.887Z,99.90
2018-09-14T07:08:07.565Z,99.90
2018-09-14T07:10:36.238Z,99.90
2018-09-14T07:13:04.927Z,99.90
2018-09-14T07:15:33.615Z,99.90
2018-09-14T07:18:03.143Z,99.90
2018-09-14T07:20:31.769Z,99.90
2018-09-14T07:23:00.511Z,99.90
2018-09-14T07:25:29.171Z,99.90
2018-09-14T07:27:57.845Z,99.90
2018-09-14T07:30:26.505Z,99.90
2018-09-14T07:32:55.169Z,99.90
2018-09-14T07:35:23.790Z,99.90
2018-09-14T07:37:52.482Z,99.90
2018-09-14T07:40:21.119Z,99.90
2018-09-14T07:42:49.742Z,99.90
2018-09-14T07:45:18.395Z,99.90
2018-09-14T07:47:47.015Z,99.90
2018-09-14T07:50:15.767Z,99.90
2018-09-14T07:52:44.413Z,99.90
2018-09-14T07:55:13.072Z,99.90
2018-09-14T07:57:41.732Z,99.90
2018-09-14T08:00:10.389Z,99.90
2018-09-14T08:02:39.122Z,99.90
2018-09-14T08:05:07.842Z,99.90
2018-09-14T08:07:36.518Z,99.90
2018-09-14T08:10:05.248Z,99.90
2018-09-14T08:12:33.885Z,99.90
2018-09-14T08:15:02.620Z,99.90
2018-09-14T08:17:31.237Z,99.90
2018-09-14T08:19:59.932Z,99.90
2018-09-14T08:22:28.594Z,99.90
2018-09-14T08:24:57.226Z,99.90
2018-09-14T08:27:26.038Z,99.90
2018-09-14T08:29:54.649Z,99.90
2018-09-14T08:32:23.311Z,99.90
2018-09-14T08:34:52.019Z,99.90
2018-09-14T08:37:20.703Z,99.90
2018-09-14T08:39:49.387Z,99.90
2018-09-14T08:42:18.025Z,99.90
2018-09-14T08:44:46.661Z,99.90
2018-09-14T08:47:15.309Z,99.90
2018-09-14T08:49:43.931Z,99.90
2018-09-14T08:52:12.837Z,99.90
2018-09-14T08:54:41.473Z,99.90
2018-09-14T08:57:10.089Z,99.90
2018-09-14T08:59:38.731Z,99.90
2018-09-14T09:02:07.378Z,99.90
2018-09-14T09:04:36.265Z,99.90
2018-09-14T09:07:04.985Z,99.90
2018-09-14T09:09:34.612Z,99.90
2018-09-14T09:12:03.262Z,99.90
2018-09-14T09:14:31.888Z,99.90
2018-09-14T09:17:00.838Z,99.90
2018-09-14T09:19:29.475Z,99.90
2018-09-14T09:21:58.109Z,99.90
2018-09-14T09:24:26.765Z,99.90
2018-09-14T09:26:55.396Z,99.90
2018-09-14T09:29:24.053Z,99.90
2018-09-14T09:31:52.705Z,99.90
2018-09-14T09:34:21.326Z,99.90
2018-09-14T09:36:49.969Z,99.90
2018-09-14T09:39:18.582Z,99.90
2018-09-14T09:41:47.249Z,99.90
2018-09-14T09:44:15.864Z,99.90
2018-09-14T09:46:44.629Z,99.90
2018-09-14T09:49:13.261Z,99.90
2018-09-14T09:51:41.947Z,99.90
2018-09-14T09:54:10.593Z,99.90
2018-09-14T09:56:39.263Z,99.90
2018-09-14T09:59:08.145Z,99.90
2018-09-14T10:01:41.833Z,99.90
2018-09-14T10:04:15.772Z,99.90
2018-09-14T10:06:44.406Z,99.90
2018-09-14T10:09:13.061Z,99.90
2018-09-14T10:11:41.742Z,99.90
2018-09-14T10:14:10.415Z,99.90
2018-09-14T10:16:39.081Z,99.90
2018-09-14T10:19:07.722Z,99.90
2018-09-14T10:21:36.345Z,99.90
2018-09-14T10:24:05.020Z,99.90
2018-09-14T10:26:33.668Z,99.90
2018-09-14T10:29:02.654Z,99.90
2018-09-14T10:31:31.221Z,99.90
2018-09-14T10:33:59.902Z,99.90
2018-09-14T10:36:28.533Z,99.90
2018-09-14T10:38:57.154Z,99.90
2018-09-14T10:41:25.806Z,99.90
2018-09-14T10:43:54.486Z,99.90
2018-09-14T10:46:23.122Z,99.90
2018-09-14T10:48:51.868Z,99.90
2018-09-14T10:51:20.474Z,99.90
2018-09-14T10:53:49.133Z,99.90
2018-09-14T10:56:17.768Z,99.90
2018-09-14T10:58:46.431Z,99.90
2018-09-14T11:01:16.126Z,99.90
2018-09-14T11:03:45.040Z,99.90
2018-09-14T11:06:14.626Z,99.90
2018-09-14T11:08:43.354Z,99.90
2018-09-14T11:11:11.977Z,99.90
2018-09-14T11:13:40.633Z,99.90
2018-09-14T11:16:09.336Z,99.90
2018-09-14T11:18:38.375Z,99.90
2018-09-14T11:21:07.038Z,99.90
2018-09-14T11:23:35.707Z,99.90
2018-09-14T11:26:04.361Z,99.90
2018-09-14T11:28:33.022Z,99.90
2018-09-14T11:31:01.745Z,99.90
2018-09-14T11:33:30.374Z,99.90
2018-09-14T11:35:59.009Z,99.90
2018-09-14T11:38:27.762Z,99.90
2018-09-14T11:40:56.320Z,99.90
2018-09-14T11:43:25.110Z,99.90
2018-09-14T11:45:53.764Z,99.90
2018-09-14T11:48:22.356Z,99.90
2018-09-14T11:50:51.005Z,99.90
2018-09-14T11:53:19.634Z,99.90
2018-09-14T11:55:48.309Z,99.90
2018-09-14T11:58:16.983Z,99.90
2018-09-14T12:00:45.796Z,99.90
2018-09-14T12:03:14.432Z,99.90
2018-09-14T12:05:43.051Z,99.90
2018-09-14T12:08:11.743Z,99.90
2018-09-14T12:10:40.394Z,99.90
2018-09-14T12:13:09.030Z,99.90
2018-09-14T12:15:37.701Z,99.90
2018-09-14T12:18:06.381Z,99.90
2018-09-14T12:20:35.021Z,99.90
2018-09-14T12:23:03.706Z,99.90
2018-09-14T12:25:32.325Z,99.90
2018-09-14T12:28:01.034Z,99.90
2018-09-14T12:30:29.659Z,99.90
2018-09-14T12:32:58.321Z,99.80
2018-09-14T12:35:26.939Z,98.70
2018-09-14T12:37:55.554Z,98.60
2018-09-14T12:40:24.209Z,98.00
2018-09-14T12:42:52.817Z,97.60
2018-09-14T12:45:21.494Z,96.20
2018-09-14T12:47:50.170Z,96.10
2018-09-14T12:50:18.785Z,96.00
2018-09-14T12:52:47.412Z,94.00
2018-09-14T12:55:16.077Z,93.90
2018-09-14T12:57:44.755Z,92.20
2018-09-14T13:00:13.393Z,91.70
2018-09-14T13:02:42.017Z,91.40
2018-09-14T13:05:10.702Z,91.00
2018-09-14T13:07:39.366Z,91.80
2018-09-14T13:10:08.093Z,87.90
2018-09-14T13:12:36.745Z,85.10
2018-09-14T13:15:05.636Z,84.50
2018-09-14T13:17:34.314Z,82.20
2018-09-14T13:20:02.950Z,81.10
2018-09-14T13:22:31.755Z,79.40
2018-09-14T13:25:00.434Z,78.50
2018-09-14T13:27:29.091Z,78.00
2018-09-14T13:29:57.717Z,77.30
2018-09-14T13:32:32.905Z,75.60
2018-09-14T13:35:01.737Z,74.30
2018-09-14T13:37:30.357Z,74.50
2018-09-14T13:39:58.965Z,72.10
2018-09-14T13:42:27.613Z,70.60
2018-09-14T13:44:56.297Z,70.00
2018-09-14T13:47:24.985Z,70.80
2018-09-14T13:49:53.653Z,72.10
2018-09-14T13:52:22.299Z,72.50
2018-09-14T13:54:50.930Z,73.30
2018-09-14T13:57:19.585Z,73.70
2018-09-14T13:59:48.338Z,73.50
2018-09-14T14:02:16.972Z,70.50
2018-09-14T14:04:52.405Z,69.80
2018-09-14T14:07:21.061Z,69.40
2018-09-14T14:09:49.818Z,69.00
2018-09-14T14:12:18.499Z,68.60
2018-09-14T14:14:47.195Z,72.00
2018-09-14T14:17:15.924Z,72.30
2018-09-14T14:19:44.571Z,75.60
2018-09-14T14:22:19.878Z,75.60
2018-09-14T14:24:48.500Z,77.00
2018-09-14T14:27:17.166Z,78.80
2018-09-14T14:29:45.900Z,80.40
2018-09-14T14:32:14.557Z,80.30
2018-09-14T14:34:43.213Z,83.30
2018-09-14T14:37:11.914Z,83.70
2018-09-14T14:39:40.627Z,83.60
2018-09-14T14:42:09.426Z,86.00
2018-09-14T14:44:38.046Z,85.20
2018-09-14T14:47:06.673Z,86.50
2018-09-14T14:49:35.325Z,87.60
2018-09-14T14:52:03.990Z,88.80
2018-09-14T14:54:32.718Z,89.40
2018-09-14T14:57:01.450Z,89.70
2018-09-14T14:59:30.139Z,90.10
2018-09-14T15:01:58.944Z,90.20
2018-09-14T15:04:27.473Z,90.50
2018-09-14T15:06:56.382Z,90.20
2018-09-14T15:09:25.022Z,89.50
2018-09-14T15:11:53.695Z,89.90
2018-09-14T15:14:22.341Z,90.20
2018-09-14T15:16:50.967Z,88.10
2018-09-14T15:19:19.658Z,87.90
2018-09-14T15:21:48.342Z,82.90
2018-09-14T15:24:16.981Z,82.30
2018-09-14T15:26:45.666Z,83.90
2018-09-14T15:29:14.322Z,80.30
2018-09-14T15:31:42.967Z,80.70
2018-09-14T15:34:11.578Z,79.60
2018-09-14T15:36:40.240Z,78.20
2018-09-14T15:39:11.010Z,78.00
2018-09-14T15:41:39.682Z,75.90
2018-09-14T15:44:08.377Z,78.30
2018-09-14T15:46:37.015Z,78.90
2018-09-14T15:49:05.693Z,79.00
2018-09-14T15:51:34.417Z,80.20
2018-09-14T15:54:03.069Z,82.50
2018-09-14T15:56:31.774Z,83.10
2018-09-14T15:59:00.403Z,83.90
2018-09-14T16:01:29.029Z,84.20
2018-09-14T16:03:57.769Z,86.00
2018-09-14T16:06:26.378Z,86.70
2018-09-14T16:08:55.022Z,88.00
2018-09-14T16:11:23.706Z,89.70
2018-09-14T16:13:52.399Z,89.90
2018-09-14T16:16:21.086Z,90.00
2018-09-14T16:18:49.714Z,90.30
2018-09-14T16:21:18.365Z,90.70
2018-09-14T16:23:47.147Z,91.20
2018-09-14T16:26:15.775Z,91.80
2018-09-14T16:28:44.450Z,91.70
2018-09-14T16:31:13.074Z,92.10
2018-09-14T16:33:41.721Z,92.40
2018-09-14T16:36:10.397Z,93.00
2018-09-14T16:38:39.016Z,93.40
2018-09-14T16:41:07.705Z,93.70
2018-09-14T16:43:36.331Z,94.00
2018-09-14T16:46:04.978Z,94.40
2018-09-14T16:48:33.639Z,94.80
2018-09-14T16:51:02.326Z,95.30
2018-09-14T16:53:31.080Z,96.00
2018-09-14T16:55:59.762Z,96.40
2018-09-14T16:58:28.389Z,97.10
2018-09-14T17:00:57.049Z,97.90
2018-09-14T17:03:25.732Z,98.20
2018-09-14T17:05:54.392Z,98.50
2018-09-14T17:08:23.026Z,99.10
2018-09-14T17:10:51.649Z,99.60
2018-09-14T17:13:20.290Z,99.90
2018-09-14T17:15:48.974Z,99.90
2018-09-14T17:18:17.641Z,99.90
2018-09-14T17:20:46.280Z,99.90
2018-09-14T17:23:14.889Z,99.90
2018-09-14T17:25:43.520Z,99.90
2018-09-14T17:28:12.127Z,99.90
2018-09-14T17:30:40.875Z,99.90
2018-09-14T17:33:09.477Z,99.90
2018-09-14T17:35:38.138Z,99.90
2018-09-14T17:38:06.838Z,99.90
2018-09-14T17:40:35.470Z,99.90
2018-09-14T17:43:04.133Z,99.90
2018-09-14T17:45:32.749Z,99.90
2018-09-14T17:48:01.355Z,99.90
2018-09-14T17:50:30.002Z,99.90
2018-09-14T17:52:58.617Z,99.90
2018-09-14T17:55:27.367Z,99.90
2018-09-14T17:57:55.998Z,99.90
2018-09-14T18:00:24.678Z,99.90
2018-09-14T18:02:53.306Z,99.90
2018-09-14T18:05:21.936Z,99.90
2018-09-14T18:07:50.682Z,99.90
2018-09-14T18:10:19.292Z,99.90
2018-09-14T18:12:47.893Z,99.90
2018-09-14T18:15:16.542Z,99.90
2018-09-14T18:17:45.146Z,99.90
2018-09-14T18:20:13.782Z,99.90
2018-09-14T18:22:42.428Z,99.90
2018-09-14T18:25:11.100Z,99.90
2018-09-14T18:27:39.797Z,99.90
2018-09-14T18:30:08.587Z,99.90
2018-09-14T18:32:37.385Z,99.90
2018-09-14T18:35:06.214Z,99.90
2018-09-14T18:37:34.848Z,99.90
2018-09-14T18:40:03.562Z,99.90
2018-09-14T18:42:32.185Z,99.90
2018-09-14T18:45:00.838Z,99.90
2018-09-14T18:47:29.473Z,99.90
2018-09-14T18:49:58.095Z,99.90
2018-09-14T18:52:26.784Z,99.90
2018-09-14T18:54:55.373Z,99.90
2018-09-14T18:57:24.075Z,99.90
2018-09-14T18:59:52.686Z,99.90
2018-09-14T19:02:21.577Z,99.90
2018-09-14T19:04:50.210Z,99.90
2018-09-14T19:07:19.304Z,99.90
2018-09-14T19:09:48.045Z,99.90
2018-09-14T19:12:16.725Z,99.90
2018-09-14T19:14:45.496Z,99.90
2018-09-14T19:17:14.144Z,99.90
2018-09-14T19:19:42.757Z,99.90
2018-09-14T19:22:11.509Z,99.90
2018-09-14T19:24:40.183Z,99.90
2018-09-14T19:27:08.793Z,99.90
2018-09-14T19:29:37.425Z,99.90
2018-09-14T19:32:06.321Z,99.90
2018-09-14T19:34:34.979Z,99.90
2018-09-14T19:37:03.611Z,99.90
2018-09-14T19:39:32.263Z,99.90
2018-09-14T19:42:00.906Z,99.90
2018-09-14T19:44:29.567Z,99.90
2018-09-14T19:46:58.305Z,99.90
2018-09-14T19:49:26.913Z,99.90
2018-09-14T19:51:55.547Z,99.90
2018-09-14T19:54:24.203Z,99.90
2018-09-14T19:56:52.848Z,99.90
2018-09-14T19:59:21.504Z,99.90
2018-09-14T20:01:50.113Z,99.90
2018-09-14T20:04:18.731Z,99.90
2018-09-14T20:06:47.425Z,99.90
2018-09-14T20:09:16.091Z,99.90
2018-09-14T20:11:44.831Z,99.90
2018-09-14T20:14:13.489Z,99.90
2018-09-14T20:16:42.137Z,99.90
2018-09-14T20:19:10.761Z,99.90
2018-09-14T20:21:39.410Z,99.90
2018-09-14T20:24:08.093Z,99.90
2018-09-14T20:26:36.718Z,99.90
2018-09-14T20:29:05.341Z,99.90
2018-09-14T20:31:33.980Z,99.90
2018-09-14T20:34:02.833Z,99.90
2018-09-14T20:36:31.506Z,99.90
2018-09-14T20:39:00.141Z,99.90
2018-09-14T20:41:28.835Z,99.90
2018-09-14T20:43:57.474Z,99.90
2018-09-14T20:46:26.078Z,99.90
2018-09-14T20:48:54.748Z,99.90
2018-09-14T20:51:23.349Z,99.90
2018-09-14T20:53:51.981Z,99.90
2018-09-14T20:56:20.625Z,99.90
2018-09-14T20:58:49.400Z,99.90
2018-09-14T21:01:18.246Z,99.90
2018-09-14T21:03:47.192Z,99.90
2018-09-14T21:06:15.822Z,99.90
2018-09-14T21:08:44.474Z,99.90
2018-09-14T21:11:13.082Z,99.90
2018-09-14T21:13:41.724Z,99.90
2018-09-14T21:16:11.227Z,99.90
2018-09-14T21:18:39.858Z,99.90
2018-09-14T21:21:08.527Z,99.90
2018-09-14T21:23:37.249Z,99.90
2018-09-14T21:26:06.201Z,99.90
2018-09-14T21:28:34.834Z,99.90
2018-09-14T21:31:03.481Z,99.90
2018-09-14T21:33:32.124Z,99.90
2018-09-14T21:36:00.770Z,99.90
2018-09-14T21:38:29.559Z,99.90
2018-09-14T21:40:58.168Z,99.90
2018-09-14T21:43:26.793Z,99.90
2018-09-14T21:45:55.429Z,99.90
2018-09-14T21:48:24.091Z,99.90
2018-09-14T21:50:52.760Z,99.90
2018-09-14T21:53:21.374Z,99.90
2018-09-14T21:55:49.976Z,99.90
2018-09-14T21:58:18.635Z,99.90
2018-09-14T22:01:54.775Z,99.90
2018-09-14T22:04:23.492Z,99.90
2018-09-14T22:06:52.137Z,99.90
2018-09-14T22:09:20.746Z,99.90
2018-09-14T22:11:49.401Z,99.90
2018-09-14T22:14:18.075Z,99.90
2018-09-14T22:16:46.878Z,99.90
2018-09-14T22:19:15.477Z,99.90
2018-09-14T22:21:44.207Z,99.90
2018-09-14T22:24:12.822Z,99.90
2018-09-14T22:26:41.435Z,99.90
2018-09-14T22:29:10.114Z,99.90
2018-09-14T22:31:38.758Z,99.90
2018-09-14T22:34:07.436Z,99.90
2018-09-14T22:36:36.071Z,99.90
2018-09-14T22:39:07.229Z,99.90
2018-09-14T22:41:35.864Z,99.90
2018-09-14T22:44:04.537Z,99.90
2018-09-14T22:46:33.191Z,99.90
2018-09-14T22:49:01.894Z,99.90
2018-09-14T22:51:30.563Z,99.90
2018-09-14T22:53:59.194Z,99.90
2018-09-14T22:56:27.840Z,99.90
2018-09-14T22:58:56.483Z,99.90
2018-09-14T23:01:25.138Z,99.90
2018-09-14T23:03:53.741Z,99.90
2018-09-14T23:06:22.408Z,99.90
2018-09-14T23:08:51.029Z,99.90
2018-09-14T23:11:19.650Z,99.90
2018-09-14T23:13:48.308Z,99.90
2018-09-14T23:16:16.950Z,99.90
2018-09-14T23:18:45.681Z,99.90
2018-09-14T23:21:14.335Z,99.90
2018-09-14T23:23:42.933Z,99.90
2018-09-14T23:26:14.521Z,99.90
2018-09-14T23:28:43.166Z,99.90
2018-09-14T23:31:11.819Z,99.90
2018-09-14T23:33:40.534Z,99.90
2018-09-14T23:36:09.277Z,99.90
2018-09-14T23:38:37.889Z,99.90
2018-09-14T23:41:07.405Z,99.90
2018-09-14T23:43:36.087Z,99.90
2018-09-14T23:46:04.720Z,99.90
2018-09-14T23:48:33.495Z,99.90
2018-09-14T23:51:02.121Z,99.90
2018-09-14T23:53:30.793Z,99.90
2018-09-14T23:55:59.465Z,99.90
2018-09-14T23:58:28.084Z,99.90
